Time;durP1;ratioP1;P1;durP2;ratioP2;P2;SDS_P1;SDS_P2;PMS_P1;PMS_P2;Temp;Humidity;BMP_temperature;BMP_pressure;BME280_temperature;BME280_humidity;BME280_pressure;Samples;Min_cycle;Max_cycle;Signal;HPM_P1;HPM_P2
2023/03/04 00:00:09;;;;;;;10.65;2.03;;;6.80;99.90;;;;;;4987461;28;20136;-77
2023/03/04 00:02:35;;;;;;;7.13;2.08;;;5.80;99.90;;;;;;4988587;28;20508;-78
2023/03/04 00:05:02;;;;;;;11.48;2.17;;;5.80;99.90;;;;;;4990880;28;20057;-77
2023/03/04 00:07:28;;;;;;;13.18;2.42;;;5.70;99.90;;;;;;4987305;28;20113;-78
2023/03/04 00:09:54;;;;;;;10.10;1.85;;;5.70;99.90;;;;;;4989647;28;20046;-78
2023/03/04 00:12:19;;;;;;;11.07;1.75;;;5.70;99.90;;;;;;4989852;28;20050;-79
2023/03/04 00:14:45;;;;;;;12.07;2.53;;;5.80;99.90;;;;;;4990481;28;20073;-79
2023/03/04 00:17:10;;;;;;;7.97;1.88;;;5.70;99.90;;;;;;4990531;28;20101;-78
2023/03/04 00:19:36;;;;;;;9.98;1.83;;;5.70;99.90;;;;;;4988622;28;20427;-79
2023/03/04 00:22:03;;;;;;;9.10;2.28;;;5.80;99.90;;;;;;4990252;28;20081;-79
2023/03/04 00:24:29;;;;;;;12.38;2.15;;;5.80;99.90;;;;;;4989691;28;20046;-78
2023/03/04 00:26:54;;;;;;;10.65;1.88;;;5.80;99.90;;;;;;4989015;28;20086;-79
2023/03/04 00:29:20;;;;;;;14.20;2.15;;;6.90;99.90;;;;;;4973644;28;20456;-79
2023/03/04 00:31:46;;;;;;;10.27;2.55;;;5.80;99.90;;;;;;4979652;28;20086;-79
2023/03/04 00:34:12;;;;;;;10.40;2.00;;;5.80;99.90;;;;;;4973002;28;20520;-79
2023/03/04 00:36:38;;;;;;;4.88;2.10;;;5.80;99.90;;;;;;4987167;28;20058;-79
2023/03/04 00:39:04;;;;;;;10.15;2.10;;;5.80;99.90;;;;;;4988356;28;20550;-79
2023/03/04 00:41:29;;;;;;;10.85;2.95;;;5.70;99.90;;;;;;4972568;28;20046;-79
2023/03/04 00:43:55;;;;;;;7.90;2.00;;;5.80;99.90;;;;;;4987589;28;20045;-79
2023/03/04 00:46:21;;;;;;;11.93;2.67;;;5.90;99.90;;;;;;4989809;28;20046;-79
2023/03/04 00:48:46;;;;;;;12.43;2.35;;;5.80;99.90;;;;;;4987144;28;20057;-79
2023/03/04 00:51:12;;;;;;;8.73;1.92;;;6.00;99.90;;;;;;4987071;28;20129;-79
2023/03/04 00:53:37;;;;;;;12.98;2.50;;;5.70;99.90;;;;;;4987105;28;20138;-79
2023/03/04 00:56:03;;;;;;;11.82;2.38;;;5.70;99.90;;;;;;4990420;28;20493;-79
2023/03/04 00:58:29;;;;;;;13.63;2.17;;;5.70;99.90;;;;;;4988348;28;20050;-79
2023/03/04 01:00:55;;;;;;;8.90;2.00;;;5.70;99.90;;;;;;4989366;28;20042;-79
2023/03/04 01:03:20;;;;;;;10.35;2.38;;;5.70;99.90;;;;;;4988798;28;20049;-79
2023/03/04 01:05:46;;;;;;;10.25;2.33;;;5.70;99.90;;;;;;4969793;28;20046;-79
2023/03/04 01:08:11;;;;;;;7.90;2.45;;;5.60;99.90;;;;;;4971129;28;20069;-78
2023/03/04 01:10:37;;;;;;;9.07;2.45;;;5.60;99.90;;;;;;4989819;28;20042;-79
2023/03/04 01:13:03;;;;;;;6.93;1.88;;;5.60;99.90;;;;;;4988226;28;20049;-78
2023/03/04 01:15:28;;;;;;;15.20;2.88;;;5.70;99.90;;;;;;4987360;28;20050;-79
2023/03/04 01:17:54;;;;;;;12.75;2.50;;;5.70;99.90;;;;;;4988173;28;20039;-78
2023/03/04 01:20:20;;;;;;;13.27;2.63;;;5.70;99.90;;;;;;4990156;28;20046;-79
2023/03/04 01:22:45;;;;;;;12.93;2.13;;;5.60;99.90;;;;;;4988125;28;20085;-79
2023/03/04 01:25:11;;;;;;;11.80;2.35;;;5.90;99.90;;;;;;4990146;28;20092;-79
2023/03/04 01:27:37;;;;;;;9.70;1.92;;;5.70;99.90;;;;;;4988394;28;20046;-79
2023/03/04 01:30:03;;;;;;;10.13;2.38;;;5.70;99.90;;;;;;4988337;28;20457;-78
2023/03/04 01:32:29;;;;;;;10.20;2.40;;;5.70;99.90;;;;;;4988039;28;20051;-79
2023/03/04 01:34:54;;;;;;;9.85;2.40;;;5.30;99.90;;;;;;4969103;28;20476;-79
2023/03/04 01:37:20;;;;;;;9.73;2.13;;;5.60;99.90;;;;;;4986404;28;20109;-79
2023/03/04 01:39:45;;;;;;;12.35;2.55;;;5.70;99.90;;;;;;4989203;28;20157;-79
2023/03/04 01:42:19;;;;;;;8.18;2.00;;;5.60;99.90;;;;;;4988208;28;20457;-79
2023/03/04 01:44:46;;;;;;;11.18;1.95;;;5.60;99.90;;;;;;4974378;28;20145;-79
2023/03/04 01:47:12;;;;;;;13.48;2.25;;;5.70;99.90;;;;;;4977488;28;20070;-79
2023/03/04 01:49:37;;;;;;;7.95;2.05;;;5.60;99.90;;;;;;4988450;28;20085;-79
2023/03/04 01:52:03;;;;;;;6.95;2.03;;;5.70;99.90;;;;;;4988302;28;20090;-79
2023/03/04 01:54:28;;;;;;;6.07;1.75;;;5.60;99.90;;;;;;4988185;28;20042;-79
2023/03/04 01:56:55;;;;;;;8.88;2.25;;;5.30;99.90;;;;;;4988013;28;20695;-79
2023/03/04 01:59:23;;;;;;;9.05;1.90;;;5.60;99.90;;;;;;4988491;28;20065;-79
2023/03/04 02:01:51;;;;;;;7.85;1.98;;;5.60;99.90;;;;;;4982472;28;20084;-79
2023/03/04 02:04:19;;;;;;;10.25;2.38;;;5.60;99.90;;;;;;4987315;28;20047;-79
2023/03/04 02:06:46;;;;;;;8.20;1.70;;;5.80;99.90;;;;;;4968572;28;20058;-79
2023/03/04 02:09:13;;;;;;;14.48;2.10;;;5.60;99.90;;;;;;4985259;28;20039;-79
2023/03/04 02:11:39;;;;;;;10.77;2.60;;;5.60;99.90;;;;;;4988189;28;20414;-79
2023/03/04 02:14:06;;;;;;;10.07;2.10;;;5.60;99.90;;;;;;4988674;28;20042;-79
2023/03/04 02:16:32;;;;;;;8.55;1.73;;;5.60;99.90;;;;;;4985911;28;20058;-79
2023/03/04 02:18:58;;;;;;;9.98;2.25;;;6.50;99.90;;;;;;4988834;28;20489;-79
2023/03/04 02:21:30;;;;;;;8.68;2.20;;;5.60;99.90;;;;;;4985951;28;20388;-78
2023/03/04 02:24:18;;;;;;;10.20;1.95;;;5.60;99.90;;;;;;4970802;28;20089;-79
2023/03/04 02:26:45;;;;;;;8.20;2.03;;;5.60;99.90;;;;;;4985750;28;20129;-79
2023/03/04 02:29:13;;;;;;;8.68;2.22;;;5.60;99.90;;;;;;4986420;28;20061;-79
2023/03/04 02:31:50;;;;;;;8.85;2.33;;;5.60;99.90;;;;;;4987159;28;20054;-79
2023/03/04 02:34:26;;;;;;;10.10;1.80;;;5.50;99.90;;;;;;4986713;28;20133;-79
2023/03/04 02:36:53;;;;;;;5.43;1.60;;;5.60;99.90;;;;;;4981748;28;20050;-79
2023/03/04 02:39:38;;;;;;;13.70;1.80;;;5.60;99.90;;;;;;4986190;28;20583;-78
2023/03/04 02:42:04;;;;;;;12.77;2.70;;;5.60;99.90;;;;;;4974522;28;20489;-79
2023/03/04 02:44:35;;;;;;;8.52;1.80;;;5.50;99.90;;;;;;4987334;28;20065;-79
2023/03/04 02:47:04;;;;;;;15.93;2.20;;;5.50;99.90;;;;;;4987801;28;21099;-79
2023/03/04 02:49:31;;;;;;;6.32;1.50;;;5.50;99.90;;;;;;4986958;28;20417;-78
2023/03/04 02:52:17;;;;;;;10.82;2.22;;;5.50;99.90;;;;;;4987892;28;20041;-78
2023/03/04 02:54:43;;;;;;;6.30;1.60;;;5.50;99.90;;;;;;4988029;28;20050;-79
2023/03/04 02:57:10;;;;;;;11.30;2.08;;;5.40;99.90;;;;;;4994142;28;20157;-79
2023/03/04 02:59:38;;;;;;;8.23;1.52;;;5.40;99.90;;;;;;4992790;28;20517;-79
2023/03/04 03:02:06;;;;;;;7.78;1.92;;;5.40;99.90;;;;;;4988392;28;20046;-79
2023/03/04 03:04:35;;;;;;;10.70;2.10;;;5.40;99.90;;;;;;4981725;28;20061;-79
2023/03/04 03:07:00;;;;;;;9.43;2.08;;;5.40;99.90;;;;;;4993258;28;20137;-79
2023/03/04 03:09:26;;;;;;;9.57;2.30;;;5.40;99.90;;;;;;4989480;28;20126;-78
2023/03/04 03:11:51;;;;;;;10.38;1.77;;;6.30;99.90;;;;;;4960958;28;20046;-79
2023/03/04 03:14:17;;;;;;;11.68;1.92;;;5.40;99.90;;;;;;4994641;28;20054;-78
2023/03/04 03:16:43;;;;;;;10.07;1.73;;;5.40;99.90;;;;;;4991851;28;20038;-78
2023/03/04 03:19:08;;;;;;;8.90;1.95;;;5.60;99.90;;;;;;4994102;28;20504;-79
2023/03/04 03:21:34;;;;;;;6.13;1.52;;;5.40;99.90;;;;;;4992360;28;20050;-79
2023/03/04 03:24:02;;;;;;;9.70;2.30;;;4.50;99.90;;;;;;4993790;28;20100;-79
2023/03/04 03:26:27;;;;;;;8.50;1.90;;;5.50;99.90;;;;;;4992563;28;20060;-78
2023/03/04 03:28:53;;;;;;;8.57;1.60;;;5.40;99.90;;;;;;4993747;28;20416;-79
2023/03/04 03:31:19;;;;;;;6.95;2.15;;;5.40;99.90;;;;;;4992669;28;20141;-78
2023/03/04 03:33:44;;;;;;;14.02;1.63;;;5.40;99.90;;;;;;4992891;28;20035;-78
2023/03/04 03:36:10;;;;;;;9.90;1.80;;;5.40;99.90;;;;;;4992233;28;20056;-78
2023/03/04 03:38:36;;;;;;;7.72;1.58;;;5.40;99.90;;;;;;4993230;28;20150;-79
2023/03/04 03:41:02;;;;;;;7.40;1.70;;;5.40;99.90;;;;;;4993199;28;20050;-79
2023/03/04 03:43:28;;;;;;;6.97;1.85;;;5.40;99.90;;;;;;4985106;28;20049;-79
2023/03/04 03:45:53;;;;;;;10.48;2.13;;;5.40;99.90;;;;;;4984920;28;20397;-79
2023/03/04 03:48:19;;;;;;;12.13;2.30;;;5.40;99.90;;;;;;4993511;28;20049;-78
2023/03/04 03:50:44;;;;;;;7.35;1.98;;;5.20;99.90;;;;;;4976935;28;20451;-79
2023/03/04 03:53:10;;;;;;;6.18;2.00;;;5.40;99.90;;;;;;4974875;28;20104;-78
2023/03/04 03:55:37;;;;;;;8.43;1.80;;;5.30;99.90;;;;;;4991109;28;20042;-78
2023/03/04 03:58:03;;;;;;;10.50;2.65;;;5.40;99.90;;;;;;4991733;28;20050;-78
2023/03/04 04:00:40;;;;;;;8.73;1.90;;;5.30;99.90;;;;;;4993370;28;20396;-80
2023/03/04 04:03:12;;;;;;;11.73;2.70;;;5.40;99.90;;;;;;4993139;28;20057;-79
2023/03/04 04:05:41;;;;;;;6.57;1.80;;;5.40;99.90;;;;;;4991252;28;20125;-80
2023/03/04 04:08:12;;;;;;;9.98;2.00;;;6.40;99.90;;;;;;4988900;28;20054;-80
2023/03/04 04:10:46;;;;;;;12.13;2.40;;;5.00;99.90;;;;;;4988719;28;20144;-80
2023/03/04 04:13:11;;;;;;;9.02;2.22;;;6.00;99.90;;;;;;4990176;28;20434;-79
2023/03/04 04:16:00;;;;;;;11.32;2.10;;;5.30;99.90;;;;;;4988307;28;20053;-80
2023/03/04 04:18:44;;;;;;;8.88;2.30;;;5.40;99.90;;;;;;4988841;28;20160;-80
2023/03/04 04:21:28;;;;;;;10.27;2.40;;;5.30;99.90;;;;;;4973355;28;20053;-79
2023/03/04 04:23:56;;;;;;;7.63;1.88;;;5.90;99.90;;;;;;4987832;28;20042;-80
2023/03/04 04:26:22;;;;;;;8.45;2.20;;;5.30;99.90;;;;;;4989749;28;20450;-79
2023/03/04 04:28:48;;;;;;;6.85;2.05;;;5.30;99.90;;;;;;4990856;28;20052;-79
2023/03/04 04:31:14;;;;;;;6.40;1.80;;;5.30;99.90;;;;;;4972706;28;20433;-80
2023/03/04 04:33:40;;;;;;;10.90;2.10;;;5.90;99.90;;;;;;4971379;28;20051;-80
2023/03/04 04:36:09;;;;;;;10.52;2.15;;;5.30;99.90;;;;;;4983983;28;20043;-80
2023/03/04 04:38:34;;;;;;;9.75;2.05;;;5.30;99.90;;;;;;4987691;28;20042;-79
2023/03/04 04:41:00;;;;;;;9.50;2.05;;;5.30;99.90;;;;;;4972638;28;20111;-79
2023/03/04 04:43:26;;;;;;;5.88;2.13;;;5.40;99.90;;;;;;4989648;28;20046;-80
2023/03/04 04:45:52;;;;;;;9.18;2.17;;;5.30;99.90;;;;;;4988951;28;20493;-79
2023/03/04 04:48:17;;;;;;;7.63;2.10;;;6.10;99.90;;;;;;4989991;28;20199;-79
2023/03/04 04:50:43;;;;;;;8.75;1.80;;;5.30;99.90;;;;;;4989959;28;20057;-79
2023/03/04 04:53:13;;;;;;;6.30;2.05;;;5.30;99.90;;;;;;4988769;28;20077;-79
2023/03/04 04:55:38;;;;;;;10.15;2.03;;;5.30;99.90;;;;;;4988600;28;20046;-79
2023/03/04 04:58:06;;;;;;;9.50;1.70;;;5.30;99.90;;;;;;4988545;28;20512;-79
2023/03/04 05:00:31;;;;;;;5.18;1.70;;;5.30;99.90;;;;;;4988584;28;20045;-79
2023/03/04 05:02:57;;;;;;;6.47;2.08;;;5.30;99.90;;;;;;4989869;28;20626;-79
2023/03/04 05:05:23;;;;;;;11.65;1.90;;;5.30;99.90;;;;;;4987407;28;20053;-79
2023/03/04 05:07:48;;;;;;;6.25;1.50;;;5.30;99.90;;;;;;4970597;28;20048;-79
2023/03/04 05:10:14;;;;;;;8.43;2.00;;;5.30;99.90;;;;;;4970414;28;20117;-79
2023/03/04 05:12:40;;;;;;;8.55;2.28;;;5.30;99.90;;;;;;4971730;28;20100;-79
2023/03/04 05:15:06;;;;;;;12.07;2.45;;;5.20;99.90;;;;;;4972327;28;20397;-79
2023/03/04 05:17:31;;;;;;;14.52;2.10;;;5.20;99.90;;;;;;4982931;28;20047;-79
2023/03/04 05:19:57;;;;;;;9.02;2.13;;;4.70;99.90;;;;;;4971781;28;20116;-79
2023/03/04 05:22:23;;;;;;;7.15;2.03;;;5.20;99.90;;;;;;4988400;28;20041;-79
2023/03/04 05:24:48;;;;;;;7.03;2.08;;;5.20;99.90;;;;;;4971067;28;20467;-79
2023/03/04 05:27:14;;;;;;;8.85;2.00;;;5.20;99.90;;;;;;4989756;28;20038;-79
2023/03/04 05:29:41;;;;;;;9.18;2.03;;;5.20;99.90;;;;;;4971214;28;20130;-79
2023/03/04 05:32:07;;;;;;;6.20;2.25;;;5.10;99.90;;;;;;4987450;28;20508;-79
2023/03/04 05:34:32;;;;;;;8.35;2.00;;;5.10;99.90;;;;;;4986984;28;20042;-79
2023/03/04 05:36:58;;;;;;;5.95;1.90;;;5.10;99.90;;;;;;4987109;28;20137;-79
2023/03/04 05:39:23;;;;;;;6.35;1.95;;;5.10;99.90;;;;;;4987781;28;20137;-79
2023/03/04 05:41:55;;;;;;;7.50;2.20;;;5.10;99.90;;;;;;4987105;28;20100;-79
2023/03/04 05:44:23;;;;;;;13.82;4.22;;;5.10;99.90;;;;;;4985215;28;20050;-79
2023/03/04 05:46:49;;;;;;;9.30;3.22;;;5.10;99.90;;;;;;4987945;28;20046;-79
2023/03/04 05:49:14;;;;;;;9.90;2.63;;;5.10;99.90;;;;;;4989270;28;20054;-79
2023/03/04 05:51:40;;;;;;;7.90;2.38;;;5.10;99.90;;;;;;4987000;28;20121;-79
2023/03/04 05:54:05;;;;;;;12.40;2.03;;;5.10;99.90;;;;;;4988128;28;20053;-79
2023/03/04 05:56:32;;;;;;;14.75;2.88;;;6.60;99.90;;;;;;4988640;28;20046;-79
2023/03/04 05:58:59;;;;;;;6.82;2.38;;;5.20;99.90;;;;;;4985853;28;20093;-79
2023/03/04 06:01:24;;;;;;;9.05;2.33;;;5.80;99.90;;;;;;4986239;28;20515;-79
2023/03/04 06:03:53;;;;;;;7.60;2.05;;;5.20;99.90;;;;;;4988291;28;20068;-79
2023/03/04 06:06:19;;;;;;;8.82;1.88;;;5.70;99.90;;;;;;4987028;28;20417;-79
2023/03/04 06:09:31;;;;;;;4.88;1.88;;;4.20;99.90;;;;;;4987354;28;20469;-80
2023/03/04 06:15:25;;;;;;;7.28;2.70;;;5.60;99.90;;;;;;4975925;28;20416;-80
2023/03/04 06:17:53;;;;;;;5.38;1.60;;;5.10;99.90;;;;;;4968162;28;20042;-79
2023/03/04 06:20:25;;;;;;;6.88;1.65;;;5.10;99.90;;;;;;4969918;28;20054;-80
2023/03/04 06:23:27;;;;;;;6.07;1.95;;;5.80;99.90;;;;;;4969942;28;20049;-80
2023/03/04 06:26:35;;;;;;;8.25;1.30;;;5.20;99.90;;;;;;4984603;28;20049;-80
2023/03/04 06:30:04;;;;;;;6.35;1.50;;;6.70;99.90;;;;;;4938051;28;20177;-80
2023/03/04 06:32:30;;;;;;;5.07;1.33;;;5.20;99.90;;;;;;4951186;28;20145;-80
2023/03/04 06:34:58;;;;;;;4.00;1.50;;;5.10;99.90;;;;;;4971162;28;20133;-81
2023/03/04 06:37:24;;;;;;;4.25;1.33;;;5.20;99.90;;;;;;4978035;28;20046;-81
2023/03/04 06:39:50;;;;;;;4.88;1.80;;;5.10;99.90;;;;;;4987604;28;20386;-81
2023/03/04 06:42:15;;;;;;;5.55;1.15;;;5.10;99.90;;;;;;4985397;28;20497;-81
2023/03/04 06:44:41;;;;;;;3.92;1.13;;;5.10;99.90;;;;;;4969944;28;20500;-81
2023/03/04 06:47:07;;;;;;;3.13;1.63;;;5.10;99.90;;;;;;4987465;28;20049;-81
2023/03/04 06:49:32;;;;;;;4.43;1.20;;;5.20;99.90;;;;;;4969218;28;20046;-81
2023/03/04 06:51:58;;;;;;;4.60;1.33;;;5.50;99.90;;;;;;4987425;28;20038;-81
2023/03/04 06:54:24;;;;;;;3.70;1.33;;;5.20;99.90;;;;;;4986286;28;20405;-81
2023/03/04 06:56:50;;;;;;;4.45;1.23;;;5.20;99.90;;;;;;4986749;28;20065;-81
2023/03/04 06:59:15;;;;;;;4.40;1.40;;;5.20;99.90;;;;;;4987044;28;20054;-81
2023/03/04 07:01:41;;;;;;;4.13;1.65;;;5.30;99.90;;;;;;4987085;28;20404;-81
2023/03/04 07:04:07;;;;;;;5.45;1.30;;;5.30;99.90;;;;;;4986994;28;20381;-81
2023/03/04 07:06:32;;;;;;;4.18;1.20;;;5.50;99.90;;;;;;4969193;28;20034;-81
2023/03/04 07:08:58;;;;;;;3.95;1.40;;;5.40;99.90;;;;;;4982453;28;20065;-81
2023/03/04 07:11:26;;;;;;;4.30;1.27;;;5.40;99.90;;;;;;4985851;28;20081;-81
2023/03/04 07:13:52;;;;;;;3.42;1.05;;;5.40;99.90;;;;;;4987277;28;20497;-80
2023/03/04 07:16:20;;;;;;;5.25;1.25;;;5.40;99.90;;;;;;4970201;28;20047;-79
2023/03/04 07:18:46;;;;;;;4.75;1.38;;;5.50;99.90;;;;;;4982981;28;20134;-85
2023/03/04 07:21:15;;;;;;;2.95;1.13;;;5.50;99.90;;;;;;4967058;28;20551;-87
2023/03/04 07:23:41;;;;;;;2.25;1.25;;;5.60;99.90;;;;;;4978422;28;20039;-81
2023/03/04 07:26:07;;;;;;;3.20;1.55;;;5.60;99.90;;;;;;4987846;28;20137;-80
2023/03/04 07:28:34;;;;;;;9.05;2.35;;;5.60;99.90;;;;;;4988186;28;20129;-79
2023/03/04 07:31:21;;;;;;;5.05;1.77;;;5.70;99.90;;;;;;4987973;28;20497;-79
2023/03/04 07:33:47;;;;;;;4.47;1.45;;;5.60;99.90;;;;;;4988606;28;20137;-79
2023/03/04 07:36:15;;;;;;;7.65;1.45;;;5.60;99.90;;;;;;4987253;28;20133;-79
2023/03/04 07:38:48;;;;;;;3.72;1.40;;;5.60;99.90;;;;;;4979381;28;20169;-79
2023/03/04 07:41:18;;;;;;;5.07;1.65;;;5.60;99.90;;;;;;4967766;28;20046;-79
2023/03/04 07:43:44;;;;;;;3.75;1.50;;;5.70;99.90;;;;;;4970963;28;20126;-79
2023/03/04 07:46:10;;;;;;;6.93;2.20;;;5.80;99.90;;;;;;4971508;28;20452;-79
2023/03/04 07:48:36;;;;;;;4.90;1.80;;;5.90;99.90;;;;;;4971863;28;20050;-79
2023/03/04 07:51:16;;;;;;;5.57;1.38;;;6.00;99.90;;;;;;4972296;28;20073;-80
2023/03/04 07:53:45;;;;;;;4.78;1.25;;;6.20;99.90;;;;;;4986421;28;20051;-79
2023/03/04 07:56:17;;;;;;;5.20;1.23;;;6.30;99.90;;;;;;4989122;28;20049;-81
2023/03/04 07:58:43;;;;;;;3.92;1.30;;;6.40;99.90;;;;;;4991420;28;20050;-80
2023/03/04 08:01:11;;;;;;;4.90;1.73;;;6.40;99.90;;;;;;4973776;28;20069;-81
2023/03/04 08:03:37;;;;;;;4.75;1.48;;;6.40;99.90;;;;;;4990978;28;20551;-80
2023/03/04 08:06:08;;;;;;;4.53;1.00;;;6.40;99.90;;;;;;4991521;28;20046;-81
2023/03/04 08:08:36;;;;;;;5.10;0.90;;;6.30;99.90;;;;;;4989774;28;20677;-81
2023/03/04 08:11:07;;;;;;;4.72;1.30;;;6.30;99.90;;;;;;4973550;28;20485;-81
2023/03/04 08:13:34;;;;;;;4.43;1.17;;;6.20;99.90;;;;;;4990181;28;20089;-81
2023/03/04 08:15:59;;;;;;;4.05;1.10;;;6.20;99.90;;;;;;4990438;28;20493;-82
2023/03/04 08:18:25;;;;;;;6.10;1.20;;;6.10;99.90;;;;;;4973621;28;20049;-82
2023/03/04 08:20:51;;;;;;;6.30;1.80;;;6.10;99.90;;;;;;4990711;28;20053;-82
2023/03/04 08:23:19;;;;;;;4.55;1.40;;;6.10;99.90;;;;;;4989004;28;20046;-82
2023/03/04 08:25:46;;;;;;;7.70;1.25;;;7.40;99.90;;;;;;4990772;28;20125;-83
2023/03/04 08:28:15;;;;;;;4.60;1.65;;;6.10;99.90;;;;;;4989367;28;20038;-82
2023/03/04 08:30:56;;;;;;;9.60;1.70;;;7.10;99.90;;;;;;4989030;28;20557;-80
2023/03/04 08:33:22;;;;;;;4.15;1.27;;;6.20;99.90;;;;;;4973493;28;20073;-81
2023/03/04 08:35:47;;;;;;;2.45;0.75;;;6.20;99.90;;;;;;4990619;28;20109;-83
2023/03/04 08:38:13;;;;;;;10.48;1.60;;;6.30;99.90;;;;;;4989140;28;20117;-83
2023/03/04 08:40:38;;;;;;;10.25;1.42;;;6.50;99.90;;;;;;4990007;28;20081;-82
2023/03/04 08:43:04;;;;;;;6.38;1.67;;;6.60;99.90;;;;;;4989253;28;20054;-82
2023/03/04 08:45:30;;;;;;;4.05;1.40;;;7.20;99.90;;;;;;4989575;28;20506;-82
2023/03/04 08:47:55;;;;;;;7.35;1.88;;;6.80;99.90;;;;;;4972693;28;20042;-82
2023/03/04 08:50:21;;;;;;;8.88;1.58;;;6.80;99.90;;;;;;4972012;28;20050;-83
2023/03/04 08:52:49;;;;;;;6.38;1.50;;;7.00;99.90;;;;;;4987699;28;20042;-82
2023/03/04 08:55:15;;;;;;;6.40;1.48;;;7.10;99.90;;;;;;4968987;28;20040;-82
2023/03/04 08:57:41;;;;;;;9.60;1.48;;;7.10;99.90;;;;;;4986920;28;20038;-83
2023/03/04 09:00:07;;;;;;;7.32;1.42;;;7.00;99.90;;;;;;4989572;28;20485;-83
2023/03/04 09:02:32;;;;;;;7.22;1.52;;;6.90;99.90;;;;;;4986234;28;20473;-83
2023/03/04 09:04:58;;;;;;;4.63;1.55;;;6.80;99.90;;;;;;4983403;28;20050;-82
2023/03/04 09:07:24;;;;;;;7.70;2.05;;;6.70;99.90;;;;;;4987377;28;20078;-83
2023/03/04 09:09:49;;;;;;;9.40;1.77;;;6.70;99.90;;;;;;4981226;28;20065;-82
2023/03/04 09:12:15;;;;;;;11.93;1.92;;;6.60;99.90;;;;;;4985874;28;20053;-82
2023/03/04 09:14:40;;;;;;;8.93;1.40;;;6.80;99.90;;;;;;4972801;28;20473;-82
2023/03/04 09:17:08;;;;;;;9.10;2.10;;;6.80;99.90;;;;;;4986571;28;20057;-82
2023/03/04 09:19:33;;;;;;;5.53;1.63;;;6.90;99.90;;;;;;4992628;28;20117;-82
2023/03/04 09:21:59;;;;;;;11.13;2.35;;;6.90;99.90;;;;;;4986966;28;20493;-82
2023/03/04 09:24:25;;;;;;;9.07;1.60;;;6.90;99.90;;;;;;4988892;28;20054;-83
2023/03/04 09:26:52;;;;;;;14.77;2.33;;;6.80;99.90;;;;;;4971817;28;20050;-82
2023/03/04 09:29:18;;;;;;;5.82;1.70;;;6.90;99.90;;;;;;4987662;28;20057;-83
2023/03/04 09:31:44;;;;;;;9.95;1.63;;;6.90;99.90;;;;;;4974431;28;20046;-82
2023/03/04 09:34:10;;;;;;;5.43;1.70;;;7.00;99.90;;;;;;4989844;28;20046;-82
2023/03/04 09:36:35;;;;;;;7.32;1.50;;;8.00;99.90;;;;;;4987670;28;20406;-82
2023/03/04 09:39:03;;;;;;;8.55;2.10;;;8.20;99.90;;;;;;4989553;28;20082;-82
2023/03/04 09:41:51;;;;;;;8.48;1.77;;;7.00;99.90;;;;;;4965958;28;20088;-82
2023/03/04 09:44:39;;;;;;;9.15;1.80;;;7.00;99.90;;;;;;4987786;28;20335;-82
2023/03/04 09:47:12;;;;;;;8.32;1.60;;;7.00;99.90;;;;;;4987881;28;20125;-82
2023/03/04 09:49:41;;;;;;;6.38;1.70;;;7.00;99.90;;;;;;4989538;28;20046;-82
2023/03/04 09:52:44;;;;;;;11.68;2.05;;;6.90;99.90;;;;;;4988371;28;20050;-83
2023/03/04 09:55:38;;;;;;;11.65;2.65;;;6.70;99.90;;;;;;4988166;28;20373;-82
2023/03/04 09:58:33;;;;;;;9.60;2.08;;;6.60;99.90;;;;;;4968574;28;20043;-82
2023/03/04 10:01:12;;;;;;;14.63;2.50;;;6.50;99.90;;;;;;4977457;28;20046;-82
2023/03/04 10:03:54;;;;;;;6.72;1.55;;;6.50;99.90;;;;;;4967215;28;20105;-82
2023/03/04 10:06:22;;;;;;;11.50;2.05;;;6.50;99.90;;;;;;4987502;28;20056;-82
2023/03/04 10:08:53;;;;;;;13.10;2.38;;;6.60;99.90;;;;;;4986863;28;20378;-82
2023/03/04 10:11:33;;;;;;;12.50;2.95;;;6.60;99.90;;;;;;4988373;28;20468;-82
2023/03/04 10:14:22;;;;;;;7.18;2.50;;;6.70;99.90;;;;;;4987224;28;20133;-82
2023/03/04 10:16:52;;;;;;;13.07;2.00;;;6.80;99.90;;;;;;4987485;28;20058;-82
2023/03/04 10:19:29;;;;;;;10.20;2.00;;;7.00;99.90;;;;;;4969174;28;20062;-82
2023/03/04 10:21:54;;;;;;;8.05;2.13;;;7.10;99.90;;;;;;4983785;28;20049;-82
2023/03/04 10:24:24;;;;;;;9.32;2.05;;;7.20;99.90;;;;;;4984741;28;20050;-81
2023/03/04 10:27:01;;;;;;;10.27;2.03;;;7.20;99.90;;;;;;4984958;28;20046;-81
2023/03/04 10:29:29;;;;;;;9.25;2.60;;;7.30;99.90;;;;;;4986400;28;20051;-82
2023/03/04 10:31:55;;;;;;;12.77;8.15;;;7.30;99.90;;;;;;4987196;28;20216;-81
2023/03/04 10:34:21;;;;;;;15.85;7.85;;;7.30;99.90;;;;;;4987677;28;20080;-81
2023/03/04 10:37:02;;;;;;;12.82;4.35;;;7.20;99.90;;;;;;4986201;28;20137;-81
2023/03/04 10:39:30;;;;;;;8.43;3.38;;;7.10;99.90;;;;;;4987450;28;20054;-81
2023/03/04 10:42:14;;;;;;;6.32;3.10;;;7.00;99.90;;;;;;4988736;28;20077;-81
2023/03/04 10:44:55;;;;;;;5.65;2.15;;;7.10;99.90;;;;;;4987141;28;20137;-81
2023/03/04 10:47:24;;;;;;;9.45;1.92;;;7.10;99.90;;;;;;4985038;28;20049;-82
2023/03/04 10:49:55;;;;;;;11.18;2.58;;;7.10;99.90;;;;;;4985561;28;20497;-81
2023/03/04 10:52:45;;;;;;;6.00;3.22;;;7.20;99.90;;;;;;4984489;28;20046;-81
2023/03/04 10:55:40;;;;;;;5.65;1.17;;;7.30;99.90;;;;;;4987940;28;20497;-82
2023/03/04 10:58:06;;;;;;;2.97;1.50;;;7.30;99.90;;;;;;4988367;28;20103;-81
2023/03/04 11:00:34;;;;;;;10.55;3.45;;;7.30;99.90;;;;;;4988465;28;20152;-81
2023/03/04 11:03:26;;;;;;;6.97;1.20;;;7.40;99.90;;;;;;4988552;28;20050;-81
2023/03/04 11:06:05;;;;;;;5.13;1.50;;;7.40;99.90;;;;;;4970088;28;20412;-82
2023/03/04 11:08:31;;;;;;;6.55;1.90;;;7.50;99.90;;;;;;4970339;28;20247;-82
2023/03/04 11:10:57;;;;;;;6.72;1.23;;;7.60;99.90;;;;;;4987527;28;20205;-83
2023/03/04 11:13:25;;;;;;;10.88;1.98;;;7.30;99.90;;;;;;4987891;28;20054;-82
2023/03/04 11:15:57;;;;;;;9.00;1.40;;;7.70;99.90;;;;;;4988534;28;20050;-83
2023/03/04 11:18:51;;;;;;;4.65;1.50;;;7.70;99.90;;;;;;4989056;28;20173;-82
2023/03/04 11:21:23;;;;;;;6.03;2.22;;;7.70;99.90;;;;;;4989830;28;20044;-82
2023/03/04 11:24:05;;;;;;;5.45;1.42;;;7.70;99.90;;;;;;4989470;28;20057;-83
2023/03/04 11:26:44;;;;;;;14.52;4.50;;;7.70;99.90;;;;;;4986237;28;20046;-82
2023/03/04 11:29:54;;;;;;;7.28;1.92;;;7.70;99.90;;;;;;4988835;28;20045;-83
2023/03/04 11:32:26;;;;;;;12.45;2.67;;;7.70;99.90;;;;;;4985657;28;20042;-83
2023/03/04 11:35:00;;;;;;;9.32;2.28;;;7.70;99.90;;;;;;4972781;28;20525;-82
2023/03/04 11:37:42;;;;;;;8.80;2.03;;;7.70;99.90;;;;;;4970049;28;20055;-82
2023/03/04 11:40:14;;;;;;;;;;;7.80;99.90;;;;;;4971111;28;20063;-82
2023/03/04 11:43:28;;;;;;;10.07;2.08;;;7.70;99.90;;;;;;4972161;28;20028;-82
2023/03/04 11:46:13;;;;;;;12.93;3.88;;;7.70;99.90;;;;;;4979471;28;20133;-81
2023/03/04 11:48:41;;;;;;;10.98;5.63;;;7.70;99.90;;;;;;4970528;28;20043;-81
2023/03/04 11:51:14;;;;;;;15.02;4.38;;;7.60;99.90;;;;;;4970996;28;20062;-81
2023/03/04 11:53:59;;;;;;;14.60;2.10;;;7.60;99.90;;;;;;4975094;28;20431;-80
2023/03/04 11:56:59;;;;;;;12.13;3.03;;;7.60;99.90;;;;;;4971299;28;20039;-81
2023/03/04 12:00:11;;;;;;;9.90;2.20;;;7.70;99.90;;;;;;4986488;28;20058;-81
2023/03/04 12:02:52;;;;;;;9.75;2.78;;;7.70;99.90;;;;;;4971819;28;20053;-81
2023/03/04 12:05:36;;;;;;;10.38;2.67;;;7.00;99.90;;;;;;4972663;28;20051;-82
2023/03/04 12:08:31;;;;;;;13.68;9.77;;;7.90;99.90;;;;;;4982903;28;20108;-81
2023/03/04 12:11:03;;;;;;;15.88;4.63;;;7.90;99.90;;;;;;4987754;28;20062;-81
2023/03/04 12:13:56;;;;;;;13.15;5.00;;;8.90;99.90;;;;;;4971538;28;20058;-82
2023/03/04 12:16:58;;;;;;;10.73;2.28;;;7.90;99.90;;;;;;4971939;28;20050;-82
2023/03/04 12:19:36;;;;;;;11.30;2.53;;;8.00;99.90;;;;;;4978688;28;20081;-82
2023/03/04 12:22:33;;;;;;;7.45;1.85;;;7.90;99.90;;;;;;4988972;28;20125;-81
2023/03/04 12:25:38;;;;;;;11.48;3.80;;;8.00;99.90;;;;;;4971515;28;20051;-82
2023/03/04 12:28:19;;;;;;;10.65;4.13;;;8.00;99.90;;;;;;4970917;28;20112;-82
2023/03/04 12:31:08;;;;;;;8.52;2.78;;;8.00;99.90;;;;;;4969978;28;20043;-82
2023/03/04 12:34:06;;;;;;;10.82;2.50;;;8.10;99.90;;;;;;4973594;28;20042;-83
2023/03/04 12:36:40;;;;;;;8.48;1.73;;;8.10;99.90;;;;;;4971699;28;20070;-82
2023/03/04 12:39:46;;;;;;;9.40;1.42;;;8.20;99.90;;;;;;4954736;28;20097;-82
2023/03/04 12:42:33;;;;;;;8.85;1.85;;;8.20;99.90;;;;;;4971725;28;20128;-81
2023/03/04 12:45:18;;;;;;;9.15;1.83;;;8.20;99.90;;;;;;4970462;28;20466;-82
2023/03/04 12:47:56;;;;;;;8.80;2.65;;;8.30;99.90;;;;;;4970615;28;20121;-82
2023/03/04 12:50:25;;;;;;;8.15;2.20;;;8.20;99.90;;;;;;4989522;28;20402;-83
2023/03/04 12:53:01;;;;;;;11.00;2.20;;;8.10;99.90;;;;;;4990119;28;20061;-81
2023/03/04 12:55:38;;;;;;;8.83;1.93;;;8.00;99.90;;;;;;4989606;28;20046;-82
2023/03/04 12:58:05;;;;;;;10.00;2.03;;;8.00;99.90;;;;;;4989682;28;20053;-81
2023/03/04 13:00:44;;;;;;;9.35;2.00;;;7.90;99.90;;;;;;4990224;28;20053;-82
2023/03/04 13:03:34;;;;;;;6.78;1.80;;;7.80;99.90;;;;;;4988027;28;20054;-82
2023/03/04 13:06:31;;;;;;;10.73;1.80;;;7.70;99.90;;;;;;4989981;28;20053;-82
2023/03/04 13:09:25;;;;;;;11.15;1.80;;;7.70;99.90;;;;;;4987387;28;20053;-81
2023/03/04 13:12:11;;;;;;;10.65;2.28;;;7.70;99.90;;;;;;4988000;28;20124;-82
2023/03/04 13:14:36;;;;;;;9.77;2.03;;;7.70;99.90;;;;;;4953455;28;20117;-82
2023/03/04 13:17:40;;;;;;;10.85;1.80;;;7.80;99.90;;;;;;4970468;28;20046;-82